Time;durP1;ratioP1;P1;durP2;ratioP2;P2;SDS_P1;SDS_P2;PMS_P1;PMS_P2;Temp;Humidity;BMP_temperature;BMP_pressure;BME280_temperature;BME280_humidity;BME280_pressure;Samples;Min_cycle;Max_cycle;Signal;HPM_P1;HPM_P2
2022/06/05 00:00:51;;;;;;;5.92;5.20;;;;;;;16.08;77.26;100858.28;1758340;81;20912;-88
2022/06/05 00:03:51;;;;;;;9.90;4.70;;;;;;;16.06;77.35;100862.02;1757958;81;21070;-89
2022/06/05 00:06:56;;;;;;;9.55;4.80;;;;;;;16.04;77.37;100857.33;1758469;81;20849;-88
2022/06/05 00:09:54;;;;;;;6.65;5.28;;;;;;;16.01;77.39;100857.09;1722537;83;21260;-88
2022/06/05 00:12:26;;;;;;;7.65;4.60;;;;;;;15.98;77.51;100852.52;1721303;83;20856;-88
2022/06/05 00:14:52;;;;;;;5.33;4.80;;;;;;;15.93;77.66;100855.52;1716497;83;21369;-88
2022/06/05 00:17:21;;;;;;;8.38;5.03;;;;;;;15.89;77.72;100845.66;1717268;83;21405;-88
2022/06/05 00:19:52;;;;;;;5.37;4.28;;;;;;;15.89;77.65;100842.17;1716941;82;20975;-87
2022/06/05 00:22:18;;;;;;;10.78;5.42;;;;;;;15.88;77.76;100839.19;1717365;83;23690;-88
2022/06/05 00:24:45;;;;;;;5.97;5.37;;;;;;;15.85;77.83;100836.77;1717101;82;21015;-89
2022/06/05 00:27:48;;;;;;;5.08;4.53;;;;;;;15.83;77.87;100837.36;1717346;83;21006;-87
2022/06/05 00:30:23;;;;;;;7.78;5.22;;;;;;;15.81;77.79;100830.89;1717135;82;20983;-88
2022/06/05 00:33:10;;;;;;;5.53;5.00;;;;;;;15.79;77.87;100838.11;1714931;83;21078;-88
2022/06/05 00:35:48;;;;;;;6.40;4.83;;;;;;;15.77;77.86;100828.61;1717076;83;21910;-88
2022/06/05 00:38:20;;;;;;;7.67;5.28;;;;;;;15.73;77.81;100826.68;1753236;80;20959;-87
2022/06/05 00:41:27;;;;;;;5.05;4.65;;;;;;;15.70;77.97;100821.61;1749101;81;20873;-87
2022/06/05 00:43:54;;;;;;;8.50;5.28;;;;;;;15.67;78.03;100820.52;1753480;82;21447;-87
2022/06/05 00:46:22;;;;;;;7.90;5.62;;;;;;;15.62;78.12;100815.58;1753253;82;20881;-88
2022/06/05 00:48:49;;;;;;;8.88;5.72;;;;;;;15.56;78.51;100808.12;1753190;82;21391;-87
2022/06/05 00:51:15;;;;;;;5.72;5.25;;;;;;;15.56;78.51;100808.12;1717057;82;20907;-87
2022/06/05 00:53:41;;;;;;;5.47;4.97;;;;;;;15.52;78.49;100812.00;1717231;83;21003;-88
2022/06/05 00:56:11;;;;;;;6.30;4.70;;;;;;;15.44;78.48;100810.41;1717201;83;20873;-88
2022/06/05 00:58:38;;;;;;;5.55;5.03;;;;;;;15.44;78.48;100810.41;1689202;83;21496;-86
2022/06/05 01:01:04;;;;;;;5.78;5.33;;;;;;;15.39;79.02;100805.98;1717078;83;21938;-86
2022/06/05 01:03:31;;;;;;;7.37;4.83;;;;;;;15.34;79.22;100804.52;1717373;82;20884;-87
2022/06/05 01:05:58;;;;;;;4.55;4.15;;;;;;;15.30;79.56;100799.59;1717201;83;21022;-87
2022/06/05 01:08:26;;;;;;;8.78;5.17;;;;;;;15.29;79.71;100800.05;1717048;83;21029;-88
2022/06/05 01:11:19;;;;;;;5.72;5.10;;;;;;;15.26;79.70;100802.11;1717061;82;20998;-87
2022/06/05 01:14:00;;;;;;;6.22;4.85;;;;;;;15.25;79.78;100800.41;1747972;81;21313;-88
2022/06/05 01:16:37;;;;;;;6.58;4.78;;;;;;;15.22;79.86;100798.02;1745418;81;20941;-86
2022/06/05 01:19:30;;;;;;;8.33;4.55;;;;;;;15.15;79.98;100798.12;1745507;81;20920;-85
2022/06/05 01:22:11;;;;;;;7.92;4.40;;;;;;;15.15;79.98;100798.12;1709698;84;20908;-88
2022/06/05 01:25:05;;;;;;;4.53;4.08;;;;;;;15.12;80.02;100796.56;1710366;84;20928;-86
2022/06/05 01:27:35;;;;;;;5.83;4.30;;;;;;;15.10;80.09;100801.95;1747649;80;21071;-89
2022/06/05 01:30:16;;;;;;;10.65;4.70;;;;;;;15.09;79.99;100808.19;1747946;82;21295;-88
2022/06/05 01:32:55;;;;;;;5.08;4.67;;;;;;;15.09;79.99;100808.19;1745502;81;20953;-88
2022/06/05 01:35:29;;;;;;;4.78;4.17;;;;;;;15.07;79.94;100807.48;1745578;80;20853;-87
2022/06/05 01:38:02;;;;;;;4.67;4.30;;;;;;;15.06;79.88;100808.42;1709479;82;21441;-88
2022/06/05 01:40:40;;;;;;;4.70;3.87;;;;;;;15.04;79.86;100805.06;1709697;84;21228;-88
2022/06/05 01:43:13;;;;;;;5.47;4.30;;;;;;;15.01;79.75;100800.02;1689626;84;21326;-88
2022/06/05 01:45:58;;;;;;;4.92;3.65;;;;;;;15.00;79.72;100794.84;1709862;84;20901;-88
2022/06/05 01:48:48;;;;;;;5.25;4.75;;;;;;;15.00;79.77;100794.84;1709466;82;20951;-87
2022/06/05 01:51:21;;;;;;;6.00;5.35;;;;;;;14.99;79.81;100803.25;1709274;84;20979;-87
2022/06/05 01:53:48;;;;;;;11.80;5.15;;;;;;;14.98;79.78;100801.55;1708160;82;21140;-87
2022/06/05 01:56:22;;;;;;;5.70;4.53;;;;;;;15.00;79.73;100808.05;1709423;84;20928;-88
2022/06/05 01:58:56;;;;;;;5.90;4.92;;;;;;;14.99;79.73;100805.06;1709498;82;20873;-87
2022/06/05 02:01:38;;;;;;;7.45;4.40;;;;;;;15.01;79.69;100805.79;1688307;84;20877;-86
2022/06/05 02:04:22;;;;;;;6.87;5.00;;;;;;;15.02;79.81;100799.53;1709546;83;20988;-87
2022/06/05 02:06:59;;;;;;;5.50;4.83;;;;;;;15.05;79.72;100793.55;1710079;84;21133;-86
2022/06/05 02:09:41;;;;;;;7.30;4.67;;;;;;;15.07;79.59;100796.05;1709478;84;20952;-87
2022/06/05 02:12:08;;;;;;;7.55;4.25;;;;;;;15.12;79.65;100806.64;1709684;84;20833;-88
2022/06/05 02:14:37;;;;;;;7.67;4.00;;;;;;;15.16;79.26;100798.48;1721151;82;20962;-88
2022/06/05 02:17:05;;;;;;;4.87;4.47;;;;;;;15.18;79.27;100813.73;1722659;83;20856;-88
2022/06/05 02:19:33;;;;;;;5.35;4.53;;;;;;;15.18;79.18;100806.64;1722551;83;21236;-87
2022/06/05 02:22:09;;;;;;;5.95;4.47;;;;;;;15.18;79.09;100797.88;1722356;83;20825;-88
2022/06/05 02:24:35;;;;;;;6.20;5.60;;;;;;;15.19;78.85;100795.63;1722439;83;20943;-89
2022/06/05 02:27:03;;;;;;;10.68;6.40;;;;;;;15.20;78.90;100797.29;1723603;83;21010;-87
2022/06/05 02:29:31;;;;;;;6.12;5.03;;;;;;;15.21;78.72;100791.89;1722963;82;20923;-87
2022/06/05 02:32:25;;;;;;;7.90;5.45;;;;;;;15.22;78.42;100795.38;1724773;81;21282;-88
2022/06/05 02:35:31;;;;;;;7.12;4.90;;;;;;;15.23;78.47;100799.23;1725208;80;20864;-88
2022/06/05 02:38:12;;;;;;;8.93;5.45;;;;;;;15.27;78.60;100803.78;1724911;81;21164;-87
2022/06/05 02:40:47;;;;;;;5.20;4.70;;;;;;;15.31;78.73;100794.17;1725260;80;20971;-89
2022/06/05 02:43:41;;;;;;;5.12;4.62;;;;;;;15.37;78.90;100798.16;1698882;81;21006;-87
2022/06/05 02:46:24;;;;;;;4.90;4.35;;;;;;;15.43;78.97;100794.18;1724787;80;21108;-86
2022/06/05 02:49:01;;;;;;;5.12;3.95;;;;;;;15.56;79.06;100798.88;1724775;80;20911;-87
2022/06/05 02:51:34;;;;;;;5.33;4.83;;;;;;;15.56;79.06;100798.88;1724455;80;20828;-88
2022/06/05 02:54:02;;;;;;;5.08;4.55;;;;;;;15.60;78.46;100798.16;1724760;80;21135;-87
2022/06/05 02:56:31;;;;;;;4.75;4.35;;;;;;;15.66;78.17;100801.66;1725001;80;20924;-87
2022/06/05 02:59:00;;;;;;;6.87;4.78;;;;;;;15.71;77.94;100806.96;1725241;80;21087;-86
2022/06/05 03:04:11;;;;;;;4.78;4.22;;;;;;;15.84;77.76;100808.65;1725076;83;20868;-88
2022/06/05 03:06:40;;;;;;;6.12;4.33;;;;;;;15.91;77.69;100806.70;1725225;83;20888;-87
2022/06/05 03:09:07;;;;;;;8.33;4.17;;;;;;;15.98;77.40;100815.00;1725432;83;20966;-86
2022/06/05 03:11:34;;;;;;;6.20;4.50;;;;;;;16.02;77.44;100819.08;1725219;83;22040;-86
2022/06/05 03:14:01;;;;;;;4.80;3.67;;;;;;;16.06;77.50;100813.91;1721953;82;20900;-88
2022/06/05 03:16:30;;;;;;;5.47;4.30;;;;;;;16.11;77.48;100813.05;1719930;83;20928;-87
2022/06/05 03:18:58;;;;;;;5.22;4.47;;;;;;;16.16;77.17;100806.06;1719918;83;20841;-87
2022/06/05 03:21:24;;;;;;;12.50;5.05;;;;;;;16.23;77.03;100807.73;1719729;80;21026;-89
2022/06/05 03:23:51;;;;;;;4.92;4.53;;;;;;;16.29;76.55;100808.08;1719632;80;21616;-87
2022/06/05 03:26:17;;;;;;;5.00;4.60;;;;;;;16.35;76.12;100806.27;1719472;83;20916;-86
2022/06/05 03:28:44;;;;;;;6.67;4.17;;;;;;;16.45;75.60;100805.05;1718762;83;20969;-88
2022/06/05 03:31:11;;;;;;;7.50;4.53;;;;;;;16.52;74.97;100804.89;1717969;83;20861;-87
2022/06/05 03:33:38;;;;;;;4.30;3.90;;;;;;;16.61;74.70;100803.30;1717345;83;20884;-86
2022/06/05 03:36:10;;;;;;;5.22;3.92;;;;;;;16.69;74.30;100796.87;1717162;83;20900;-88
2022/06/05 03:38:37;;;;;;;8.05;4.47;;;;;;;16.78;74.49;100795.27;1717273;83;20987;-87
2022/06/05 03:41:04;;;;;;;5.70;4.20;;;;;;;16.86;74.05;100792.86;1716982;83;20932;-88
2022/06/05 03:43:32;;;;;;;6.05;4.58;;;;;;;16.95;73.59;100783.30;1716979;82;20932;-87
2022/06/05 03:46:04;;;;;;;7.37;4.60;;;;;;;17.03;73.24;100792.77;1717267;83;20876;-88
2022/06/05 03:48:32;;;;;;;6.05;4.03;;;;;;;17.10;72.95;100785.14;1716845;83;21160;-86
2022/06/05 03:50:59;;;;;;;9.13;5.40;;;;;;;17.17;72.68;100782.32;1717199;82;20896;-88
2022/06/05 03:53:26;;;;;;;18.32;11.83;;;;;;;17.22;72.26;100779.27;1717157;83;20900;-88
2022/06/05 03:55:52;;;;;;;8.10;7.20;;;;;;;17.26;72.06;100770.92;1753219;80;20936;-89
2022/06/05 03:58:20;;;;;;;7.05;5.60;;;;;;;17.32;71.99;100767.75;1717334;83;21302;-88
2022/06/05 04:00:47;;;;;;;6.17;4.40;;;;;;;17.38;72.11;100767.70;1716961;82;21889;-88
2022/06/05 04:03:13;;;;;;;6.90;3.80;;;;;;;17.48;72.14;100769.09;1716892;82;20943;-88
2022/06/05 04:05:40;;;;;;;5.05;4.58;;;;;;;17.59;71.98;100765.84;1717422;83;20967;-87
2022/06/05 04:08:07;;;;;;;4.95;4.25;;;;;;;17.75;71.86;100760.52;1717138;83;20971;-88
2022/06/05 04:10:36;;;;;;;4.67;4.22;;;;;;;17.91;71.53;100756.05;1716702;83;20927;-88
2022/06/05 04:13:03;;;;;;;8.35;6.12;;;;;;;18.06;71.00;100755.19;1716573;83;21909;-87
2022/06/05 04:15:30;;;;;;;4.33;3.92;;;;;;;18.20;70.60;100748.96;1709026;82;20936;-88
2022/06/05 04:17:57;;;;;;;4.47;4.08;;;;;;;18.32;70.62;100742.19;1709101;82;20924;-85
2022/06/05 04:20:24;;;;;;;5.50;3.65;;;;;;;18.42;70.36;100746.53;1709038;84;20995;-88
2022/06/05 04:22:51;;;;;;;11.18;5.58;;;;;;;18.52;70.15;100739.91;1709016;84;20873;-88
2022/06/05 04:28:19;;;;;;;5.80;3.72;;;;;;;18.77;69.80;100734.98;1855195;77;22714;-87
2022/06/05 04:30:46;;;;;;;6.40;4.15;;;;;;;18.81;69.90;100730.60;1825325;78;21033;-87
2022/06/05 04:33:12;;;;;;;6.53;4.70;;;;;;;18.95;69.92;100731.13;1823383;78;21204;-87
2022/06/05 04:35:39;;;;;;;5.33;4.03;;;;;;;19.11;69.77;100725.20;1823004;78;21053;-88
2022/06/05 04:38:07;;;;;;;5.78;3.77;;;;;;;19.29;69.51;100722.13;1822540;78;20897;-88
2022/06/05 04:40:34;;;;;;;4.90;3.00;;;;;;;19.54;67.72;100729.08;1822868;78;20927;-86
2022/06/05 04:43:00;;;;;;;4.35;3.37;;;;;;;19.87;65.92;100730.33;1822841;78;21424;-88
2022/06/05 04:45:27;;;;;;;3.47;3.15;;;;;;;20.23;65.21;100725.89;1822724;78;21139;-87
2022/06/05 04:47:53;;;;;;;6.60;3.52;;;;;;;20.63;63.41;100731.25;1822692;78;20918;-86
2022/06/05 04:50:20;;;;;;;5.65;3.33;;;;;;;21.01;62.32;100733.17;1822882;78;20918;-87
2022/06/05 04:52:46;;;;;;;4.37;3.17;;;;;;;21.51;60.97;100729.78;1822594;78;20918;-87
2022/06/05 04:55:14;;;;;;;10.63;3.45;;;;;;;21.98;58.81;100729.75;1823159;78;20907;-86
2022/06/05 04:57:44;;;;;;;6.05;3.17;;;;;;;22.43;57.71;100723.14;1825339;77;20971;-86
2022/06/05 05:00:11;;;;;;;6.83;6.12;;;;;;;22.91;56.73;100716.59;1825370;78;21199;-87
2022/06/05 05:02:38;;;;;;;6.78;5.53;;;;;;;23.47;54.83;100716.11;1825126;77;20998;-87
2022/06/05 05:05:06;;;;;;;8.68;5.15;;;;;;;24.06;53.44;100719.67;1825121;77;20911;-88
2022/06/05 05:07:35;;;;;;;6.33;4.35;;;;;;;24.64;52.66;100713.38;1824534;78;20868;-86
2022/06/05 05:10:01;;;;;;;14.53;5.72;;;;;;;25.16;51.38;100720.53;1823550;78;21232;-88
2022/06/05 05:12:28;;;;;;;9.50;5.40;;;;;;;25.59;49.72;100723.42;1823613;78;20868;-87
2022/06/05 05:14:55;;;;;;;3.98;3.58;;;;;;;25.94;48.81;100733.55;1823519;78;20896;-86
2022/06/05 05:17:22;;;;;;;3.35;3.05;;;;;;;26.13;47.53;100728.06;1824167;78;20951;-86
2022/06/05 05:19:49;;;;;;;4.45;3.58;;;;;;;26.31;46.87;100730.30;1823040;78;20939;-86
2022/06/05 05:22:15;;;;;;;6.60;4.03;;;;;;;26.45;47.02;100734.24;1822586;78;21135;-86
2022/06/05 05:24:43;;;;;;;9.53;4.40;;;;;;;26.77;46.63;100730.72;1822726;78;20923;-87
2022/06/05 05:27:09;;;;;;;8.13;4.83;;;;;;;27.12;45.62;100725.34;1823845;78;20888;-87
2022/06/05 05:29:40;;;;;;;10.45;9.53;;;;;;;27.44;45.02;100731.97;1826146;78;20978;-88
2022/06/05 05:32:08;;;;;;;7.83;7.12;;;;;;;27.68;44.15;100729.28;1826546;78;20844;-87
2022/06/05 05:34:35;;;;;;;12.85;9.35;;;;;;;27.85;43.29;100728.93;1826493;78;21143;-87
2022/06/05 05:37:02;;;;;;;9.45;8.23;;;;;;;28.03;43.23;100728.34;1826128;78;20903;-87
2022/06/05 05:42:15;;;;;;;6.53;5.75;;;;;;;28.22;42.32;100720.81;1825400;78;20892;-87
2022/06/05 05:44:46;;;;;;;10.32;6.72;;;;;;;28.39;41.53;100721.25;1826682;78;20958;-85
2022/06/05 05:47:16;;;;;;;7.65;6.95;;;;;;;28.43;41.31;100718.43;1755577;78;21234;-87
2022/06/05 05:49:43;;;;;;;10.08;6.05;;;;;;;28.47;41.39;100714.81;1786588;80;20909;-89
2022/06/05 05:52:12;;;;;;;6.97;5.92;;;;;;;28.77;41.83;100719.30;1786813;76;20952;-87
2022/06/05 05:54:39;;;;;;;8.33;4.45;;;;;;;29.10;41.36;100720.61;1786498;76;20996;-87
2022/06/05 05:57:06;;;;;;;7.92;4.78;;;;;;;29.45;40.90;100717.56;1786499;76;21000;-86
2022/06/05 05:59:33;;;;;;;7.12;5.28;;;;;;;29.80;40.18;100719.93;1786856;76;21170;-86
2022/06/05 06:02:00;;;;;;;5.65;4.60;;;;;;;29.79;39.35;100713.38;1786858;76;21003;-87
2022/06/05 06:04:27;;;;;;;5.30;3.42;;;;;;;29.79;39.51;100711.50;1786425;76;20886;-87
2022/06/05 06:06:53;;;;;;;85.67;78.17;;;;;;;29.85;40.04;100709.28;1785986;76;20906;-88
2022/06/05 06:09:20;;;;;;;5.17;4.78;;;;;;;30.13;40.10;100706.20;1786313;80;20965;-88
2022/06/05 06:11:48;;;;;;;6.37;4.55;;;;;;;30.43;39.74;100696.09;1786288;76;21111;-86
2022/06/05 06:14:14;;;;;;;5.72;3.85;;;;;;;30.67;39.14;100691.72;1786411;80;20926;-86
2022/06/05 06:16:42;;;;;;;6.60;3.40;;;;;;;30.82;38.27;100685.13;1786412;80;20897;-87
2022/06/05 06:19:09;;;;;;;5.70;3.60;;;;;;;31.00;38.22;100688.41;1786549;80;20933;-89
2022/06/05 06:21:35;;;;;;;7.78;4.15;;;;;;;31.14;37.91;100685.30;1786878;80;21422;-87
2022/06/05 06:24:03;;;;;;;4.30;3.70;;;;;;;31.33;37.75;100688.02;1786603;80;21225;-87
2022/06/05 06:26:29;;;;;;;4.40;4.00;;;;;;;31.40;37.30;100689.56;1760415;80;20945;-87
2022/06/05 06:28:55;;;;;;;3.92;3.60;;;;;;;31.45;37.10;100680.78;1788854;80;21307;-89
2022/06/05 06:31:22;;;;;;;5.97;3.47;;;;;;;31.44;37.35;100685.92;1788911;78;20894;-88
2022/06/05 06:33:49;;;;;;;4.15;3.60;;;;;;;31.62;37.36;100682.34;1788930;80;20933;-88
2022/06/05 06:36:18;;;;;;;5.08;3.52;;;;;;;31.88;37.40;100671.61;1788533;80;21233;-86
2022/06/05 06:38:45;;;;;;;5.90;3.50;;;;;;;32.23;36.40;100676.85;1788489;80;20862;-85
2022/06/05 06:41:18;;;;;;;7.80;4.42;;;;;;;32.28;35.69;100674.25;1787169;80;20889;-86
2022/06/05 06:43:45;;;;;;;4.90;3.20;;;;;;;32.12;35.96;100677.95;1785912;80;20944;-86
2022/06/05 06:46:11;;;;;;;4.22;3.77;;;;;;;32.10;36.64;100680.60;1785952;80;20866;-87
2022/06/05 06:48:39;;;;;;;4.35;3.72;;;;;;;31.92;36.43;100682.30;1785941;80;20921;-85
2022/06/05 06:51:06;;;;;;;8.03;3.85;;;;;;;31.73;36.97;100681.55;1785915;80;20976;-87
2022/06/05 06:53:34;;;;;;;4.42;3.25;;;;;;;31.44;37.23;100676.93;1786358;80;20894;-87
2022/06/05 06:56:08;;;;;;;6.92;4.08;;;;;;;31.26;38.02;100673.19;1786219;80;20902;-87
2022/06/05 06:58:35;;;;;;;5.45;4.40;;;;;;;31.16;38.17;100655.27;1785868;80;20882;-87
2022/06/05 07:01:02;;;;;;;14.15;8.83;;;;;;;30.93;38.62;100651.91;1786155;79;21112;-87
2022/06/05 07:03:29;;;;;;;21.80;19.70;;;;;;;30.77;38.83;100640.59;1785845;80;20976;-87
2022/06/05 07:05:56;;;;;;;5.47;4.62;;;;;;;30.49;38.91;100637.02;1785945;80;20995;-87
2022/06/05 07:08:24;;;;;;;7.80;3.80;;;;;;;30.28;39.71;100645.54;1786485;80;20877;-90
2022/06/05 07:10:50;;;;;;;3.58;3.12;;;;;;;30.20;40.02;100655.28;1786058;80;20941;-88
2022/06/05 07:13:17;;;;;;;8.80;5.15;;;;;;;30.23;40.21;100666.47;1786073;79;21282;-88
2022/06/05 07:15:45;;;;;;;6.20;3.65;;;;;;;30.34;40.25;100673.89;1785994;80;21386;-88
2022/06/05 07:18:12;;;;;;;5.35;3.42;;;;;;;30.47;39.75;100674.31;1785906;80;20936;-86
2022/06/05 07:20:41;;;;;;;6.12;3.62;;;;;;;30.63;39.83;100661.25;1785937;80;20933;-88
2022/06/05 07:23:08;;;;;;;5.50;4.33;;;;;;;30.85;39.77;100653.02;1785733;80;20988;-88
2022/06/05 07:25:36;;;;;;;8.93;6.62;;;;;;;31.23;40.51;100660.08;1786109;80;21851;-87
2022/06/05 07:28:03;;;;;;;4.87;4.58;;;;;;;31.58;39.05;100655.38;1789099;80;20921;-88
2022/06/05 07:30:30;;;;;;;8.48;7.67;;;;;;;31.76;38.66;100651.24;1793444;80;20917;-87
2022/06/05 07:32:58;;;;;;;6.75;5.30;;;;;;;31.96;38.39;100653.65;1792637;80;20932;-86
2022/06/05 07:35:24;;;;;;;3.52;3.10;;;;;;;31.96;37.97;100656.90;1794609;80;20932;-88
2022/06/05 07:37:50;;;;;;;4.85;3.27;;;;;;;31.94;38.43;100648.98;1793170;80;21196;-88
2022/06/05 07:40:17;;;;;;;5.25;3.85;;;;;;;32.06;38.24;100641.42;1792561;80;20910;-87
2022/06/05 07:42:44;;;;;;;5.85;3.27;;;;;;;32.25;38.46;100640.81;1792064;80;21363;-89
2022/06/05 07:45:14;;;;;;;20.55;18.45;;;;;;;32.56;38.17;100646.44;1791805;80;20957;-87
2022/06/05 07:47:42;;;;;;;7.12;5.08;;;;;;;32.78;37.51;100641.22;1791816;80;21497;-87
2022/06/05 07:50:12;;;;;;;5.08;3.75;;;;;;;32.90;36.75;100635.76;1792172;80;21261;-88
2022/06/05 07:55:24;;;;;;;4.70;3.05;;;;;;;33.07;36.41;100644.84;1791943;80;20897;-89
2022/06/05 07:57:51;;;;;;;5.03;3.75;;;;;;;33.03;36.49;100645.81;1792192;80;20897;-89
2022/06/05 08:00:17;;;;;;;5.67;3.90;;;;;;;32.95;36.92;100643.49;1792055;80;20870;-89
2022/06/05 08:02:44;;;;;;;6.85;3.72;;;;;;;32.89;37.37;100644.45;1791948;80;21270;-88
2022/06/05 08:05:11;;;;;;;10.80;3.65;;;;;;;32.74;37.52;100644.94;1791944;80;20893;-89
2022/06/05 08:07:38;;;;;;;3.60;3.25;;;;;;;32.47;37.26;100648.66;1791982;80;20842;-88
2022/06/05 08:10:06;;;;;;;4.75;3.60;;;;;;;32.21;37.89;100645.33;1791876;80;20878;-89
2022/06/05 08:12:34;;;;;;;4.65;3.70;;;;;;;31.96;38.89;100636.02;1791977;80;20924;-86
2022/06/05 08:15:08;;;;;;;5.75;4.05;;;;;;;31.74;38.94;100633.02;1791967;80;21414;-88
2022/06/05 08:17:36;;;;;;;4.65;3.20;;;;;;;31.53;39.31;100630.32;1791882;80;20853;-87
2022/06/05 08:20:06;;;;;;;6.12;4.20;;;;;;;31.58;39.21;100633.69;1791961;80;20952;-86
2022/06/05 08:22:33;;;;;;;3.60;3.30;;;;;;;31.44;39.32;100629.50;1792313;80;20929;-89
2022/06/05 08:24:59;;;;;;;4.53;3.12;;;;;;;31.28;40.05;100636.36;1791929;80;20921;-89
2022/06/05 08:27:26;;;;;;;7.22;3.33;;;;;;;31.17;40.17;100628.47;1791865;80;21317;-89
2022/06/05 08:29:57;;;;;;;6.78;3.83;;;;;;;31.08;40.14;100632.05;1783350;80;20898;-89
2022/06/05 08:32:25;;;;;;;4.50;2.77;;;;;;;31.04;40.69;100635.41;1783338;80;20917;-89
2022/06/05 08:34:52;;;;;;;4.67;2.72;;;;;;;31.07;40.23;100641.20;1783268;80;20913;-88
2022/06/05 08:43:10;;;;;;;9.20;5.08;;;;;;;31.56;40.70;100641.22;1783026;80;21055;-90
2022/06/05 08:45:48;;;;;;;5.37;3.58;;;;;;;31.81;40.08;100636.98;1821759;78;20970;-88
2022/06/05 08:48:35;;;;;;;3.17;2.60;;;;;;;32.10;39.83;100639.36;1766342;78;20920;-87
2022/06/05 08:51:23;;;;;;;3.37;3.08;;;;;;;32.49;39.35;100637.56;1821982;78;20919;-88
2022/06/05 08:54:04;;;;;;;6.35;2.85;;;;;;;32.83;38.32;100633.99;1821869;78;21900;-87
2022/06/05 08:56:49;;;;;;;5.30;4.23;;;;;;;32.98;37.65;100634.03;1822131;78;21013;-89
2022/06/05 08:59:45;;;;;;;3.20;2.87;;;;;;;32.94;37.72;100632.86;1822072;78;21297;-89
2022/06/05 09:02:28;;;;;;;4.92;2.35;;;;;;;32.99;38.11;100634.31;1796925;78;20891;-88
2022/06/05 09:05:04;;;;;;;4.47;2.52;;;;;;;33.22;37.87;100634.82;1821463;78;20951;-90
2022/06/05 09:07:41;;;;;;;2.47;2.30;;;;;;;33.28;37.58;100643.89;1822203;78;21297;-89
2022/06/05 09:10:26;;;;;;;5.30;2.67;;;;;;;33.34;37.30;100639.66;1821701;78;21448;-89
2022/06/05 09:12:59;;;;;;;3.70;2.45;;;;;;;33.50;37.06;100641.31;1821746;78;21397;-88
2022/06/05 09:15:45;;;;;;;4.75;3.47;;;;;;;33.63;37.08;100638.31;1820696;78;20943;-88
2022/06/05 09:18:21;;;;;;;2.85;2.58;;;;;;;33.74;36.96;100629.81;1793643;78;20911;-88
2022/06/05 09:20:55;;;;;;;4.90;2.33;;;;;;;33.88;36.68;100635.75;1821772;78;21244;-85
2022/06/05 09:23:35;;;;;;;3.77;2.90;;;;;;;33.95;35.33;100625.00;1821205;78;20915;-89
2022/06/05 09:26:28;;;;;;;2.70;2.50;;;;;;;33.76;36.17;100624.41;1822053;78;20907;-86
2022/06/05 09:29:26;;;;;;;63.20;57.95;;;;;;;33.62;35.87;100624.45;1821531;78;20915;-88
2022/06/05 09:32:14;;;;;;;85.92;78.52;;;;;;;33.44;36.17;100622.19;1822146;78;20868;-87
2022/06/05 09:35:16;;;;;;;40.65;36.50;;;;;;;33.19;36.31;100624.41;1822165;78;21276;-89
2022/06/05 09:37:51;;;;;;;27.37;24.55;;;;;;;32.80;36.30;100622.80;1822073;78;20876;-87
2022/06/05 09:40:22;;;;;;;4.45;3.35;;;;;;;32.33;37.00;100618.75;1821731;78;21439;-87
2022/06/05 09:43:14;;;;;;;2.95;2.60;;;;;;;31.87;37.25;100618.43;1821925;78;20919;-87
2022/06/05 09:46:08;;;;;;;4.03;3.72;;;;;;;31.42;38.37;100615.38;1821913;78;21413;-88
2022/06/05 09:49:04;;;;;;;7.60;4.75;;;;;;;31.01;39.43;100608.25;1821771;78;21228;-87
2022/06/05 09:51:30;;;;;;;5.80;3.05;;;;;;;30.49;40.15;100609.14;1821655;78;21530;-88
2022/06/05 09:54:07;;;;;;;3.72;3.02;;;;;;;29.97;41.10;100606.67;1821769;78;21002;-88
2022/06/05 09:59:39;;;;;;;3.60;2.90;;;;;;;29.49;42.66;100612.59;1821893;78;20891;-88
2022/06/05 10:02:07;;;;;;;4.80;3.00;;;;;;;29.36;43.40;100611.31;1822017;78;21156;-88
2022/06/05 10:04:36;;;;;;;2.98;2.62;;;;;;;29.27;43.09;100601.28;1821786;78;20942;-87
2022/06/05 10:07:08;;;;;;;8.85;8.13;;;;;;;29.17;43.50;100604.95;1821804;78;20908;-87
2022/06/05 10:09:36;;;;;;;3.17;2.83;;;;;;;29.02;43.46;100601.98;1821649;78;21144;-89
2022/06/05 10:12:07;;;;;;;64.42;58.95;;;;;;;28.75;44.51;100606.66;1822052;78;20836;-89
2022/06/05 10:14:58;;;;;;;5.53;3.80;;;;;;;28.53;44.63;100604.73;1821933;78;20884;-88
2022/06/05 10:17:49;;;;;;;3.40;3.02;;;;;;;28.35;45.32;100606.70;1821738;78;20853;-86
2022/06/05 10:20:41;;;;;;;4.30;3.33;;;;;;;28.19;45.79;100607.97;1821880;78;20907;-84
2022/06/05 10:23:28;;;;;;;8.28;2.60;;;;;;;28.02;45.91;100612.12;1797576;78;20907;-88
2022/06/05 10:26:17;;;;;;;3.77;2.52;;;;;;;27.85;45.92;100611.68;1818098;78;20915;-87
2022/06/05 10:28:45;;;;;;;6.12;2.87;;;;;;;27.72;46.34;100611.63;1821997;78;21871;-87
2022/06/05 10:31:25;;;;;;;4.75;2.72;;;;;;;27.55;46.69;100613.37;1823266;78;20916;-85
2022/06/05 10:34:07;;;;;;;3.17;2.42;;;;;;;27.42;47.25;100612.00;1822824;78;21334;-87
2022/06/05 10:36:52;;;;;;;4.80;2.30;;;;;;;27.34;46.92;100613.52;1821564;78;20927;-88
2022/06/05 10:39:25;;;;;;;4.10;2.47;;;;;;;27.27;46.86;100617.02;1821877;78;21530;-86
2022/06/05 10:42:00;;;;;;;5.45;4.20;;;;;;;27.15;46.99;100617.27;1820833;78;21495;-88
2022/06/05 10:44:52;;;;;;;7.42;3.98;;;;;;;27.09;47.30;100634.22;1822120;78;20947;-87
2022/06/05 10:48:00;;;;;;;4.60;4.20;;;;;;;27.03;47.67;100634.48;1822044;78;20971;-88
2022/06/05 10:50:34;;;;;;;3.25;3.05;;;;;;;26.99;48.20;100625.17;1821932;78;20919;-88
2022/06/05 10:53:15;;;;;;;4.80;2.92;;;;;;;26.93;48.11;100631.34;1822087;78;20903;-88
2022/06/05 10:56:03;;;;;;;2.40;2.22;;;;;;;26.87;48.11;100628.09;1819913;78;21259;-88
2022/06/05 10:58:41;;;;;;;5.22;3.90;;;;;;;26.80;47.74;100636.66;1820806;78;21413;-86
2022/06/05 11:01:31;;;;;;;6.78;3.08;;;;;;;26.75;48.10;100643.98;1822028;78;21491;-85
2022/06/05 11:04:18;;;;;;;3.42;2.15;;;;;;;26.72;48.32;100643.02;1821990;78;20951;-86
2022/06/05 11:07:11;;;;;;;3.65;2.92;;;;;;;26.72;48.54;100644.88;1822070;78;21314;-88
2022/06/05 11:10:06;;;;;;;;;;;;;;;26.74;48.60;100650.89;1824791;78;21154;-89
2022/06/05 11:15:55;;;;;;;4.30;2.60;;;;;;;26.90;48.76;100651.09;1821870;78;21381;-90
2022/06/05 11:18:29;;;;;;;8.25;2.65;;;;;;;26.98;47.79;100655.80;1821671;78;21377;-88
2022/06/05 11:20:59;;;;;;;3.30;2.52;;;;;;;27.01;48.03;100647.34;1821799;78;20951;-87
2022/06/05 11:23:28;;;;;;;2.62;2.42;;;;;;;27.07;47.45;100647.04;1821683;78;21305;-88
2022/06/05 11:26:21;;;;;;;2.45;2.00;;;;;;;27.07;47.27;100646.52;1821624;78;21002;-88
2022/06/05 11:29:27;;;;;;;2.10;2.00;;;;;;;27.02;47.48;100650.33;1821418;78;21018;-88
2022/06/05 11:32:31;;;;;;;5.17;2.60;;;;;;;26.92;47.73;100647.69;1821055;78;20920;-85
2022/06/05 11:35:06;;;;;;;131.93;118.85;;;;;;;26.77;47.75;100645.11;1821630;78;20974;-86
2022/06/05 11:37:58;;;;;;;20.75;16.87;;;;;;;26.58;47.67;100639.41;1821533;78;21264;-89
2022/06/05 11:40:50;;;;;;;25.37;22.62;;;;;;;26.41;47.35;100645.59;1822014;78;20954;-87
2022/06/05 11:43:36;;;;;;;8.78;5.42;;;;;;;26.26;48.09;100638.13;1821876;78;20955;-87
2022/06/05 11:46:24;;;;;;;4.35;2.58;;;;;;;26.12;48.07;100649.77;1821487;78;21358;-86
2022/06/05 11:49:14;;;;;;;5.35;3.67;;;;;;;26.00;47.99;100649.47;1821644;78;21397;-87
2022/06/05 11:52:17;;;;;;;7.00;2.30;;;;;;;25.86;47.51;100648.48;1820354;78;21138;-86
2022/06/05 11:55:20;;;;;;;4.33;2.52;;;;;;;25.70;47.32;100652.75;1822011;78;21314;-85
2022/06/05 11:58:00;;;;;;;3.15;2.10;;;;;;;25.53;47.66;100652.17;1821728;78;20876;-89
2022/06/05 12:00:35;;;;;;;2.92;2.55;;;;;;;25.41;47.11;100651.80;1821803;78;21001;-88
2022/06/05 12:03:22;;;;;;;3.50;2.30;;;;;;;25.34;47.69;100665.67;1821734;78;20915;-89
2022/06/05 12:06:17;;;;;;;5.62;1.92;;;;;;;25.26;47.50;100663.08;1821751;78;21225;-87
2022/06/05 12:08:50;;;;;;;4.50;3.70;;;;;;;25.17;47.22;100663.17;1821768;78;20868;-87
2022/06/05 12:11:39;;;;;;;2.87;2.00;;;;;;;25.05;47.08;100662.48;1822000;78;20927;-87
2022/06/05 12:14:25;;;;;;;9.30;8.53;;;;;;;24.90;47.51;100661.13;1824210;78;20915;-86
2022/06/05 12:17:13;;;;;;;5.87;3.12;;;;;;;24.80;47.48;100657.39;1783933;78;20848;-87
2022/06/05 12:19:54;;;;;;;4.17;3.80;;;;;;;24.70;47.31;100662.19;1822072;78;21220;-86